sensor_id;sensor_type;location;lat;lon;timestamp;temperature;humidity
32095;DHT22;18608;53.688;10.748;2022-12-18T00:01:57;-6.20;99.90
32095;DHT22;18608;53.688;10.748;2022-12-18T00:04:26;-6.20;99.90
32095;DHT22;18608;53.688;10.748;2022-12-18T00:06:52;-6.30;99.90
32095;DHT22;18608;53.688;10.748;2022-12-18T00:09:18;-6.20;99.90
32095;DHT22;18608;53.688;10.748;2022-12-18T00:11:44;-6.30;99.90
32095;DHT22;18608;53.688;10.748;2022-12-18T00:14:13;-6.30;99.90
32095;DHT22;18608;53.688;10.748;2022-12-18T00:16:39;-6.30;99.90
32095;DHT22;18608;53.688;10.748;2022-12-18T00:19:06;-6.30;99.90
32095;DHT22;18608;53.688;10.748;2022-12-18T00:21:33;-6.40;99.90
32095;DHT22;18608;53.688;10.748;2022-12-18T00:23:59;-6.30;99.90
32095;DHT22;18608;53.688;10.748;2022-12-18T00:26:28;-6.40;99.90
32095;DHT22;18608;53.688;10.748;2022-12-18T00:28:54;-6.40;99.90
32095;DHT22;18608;53.688;10.748;2022-12-18T00:31:23;-6.40;99.90
32095;DHT22;18608;53.688;10.748;2022-12-18T00:33:50;-6.40;99.90
32095;DHT22;18608;53.688;10.748;2022-12-18T00:36:21;-6.40;99.90
32095;DHT22;18608;53.688;10.748;2022-12-18T00:38:47;-6.50;99.90
32095;DHT22;18608;53.688;10.748;2022-12-18T00:41:15;-6.50;99.90
32095;DHT22;18608;53.688;10.748;2022-12-18T00:44:05;-6.50;99.90
32095;DHT22;18608;53.688;10.748;2022-12-18T00:46:31;-6.60;99.90
32095;DHT22;18608;53.688;10.748;2022-12-18T00:48:57;-6.60;99.90
32095;DHT22;18608;53.688;10.748;2022-12-18T00:51:24;-6.60;99.90
32095;DHT22;18608;53.688;10.748;2022-12-18T00:53:50;-6.60;99.90
32095;DHT22;18608;53.688;10.748;2022-12-18T00:56:16;-6.60;99.90
32095;DHT22;18608;53.688;10.748;2022-12-18T00:58:41;-6.70;99.90
32095;DHT22;18608;53.688;10.748;2022-12-18T01:01:07;-6.60;99.90
32095;DHT22;18608;53.688;10.748;2022-12-18T01:03:33;-6.70;99.90
32095;DHT22;18608;53.688;10.748;2022-12-18T01:05:58;-6.60;99.90
32095;DHT22;18608;53.688;10.748;2022-12-18T01:08:24;-6.70;99.90
32095;DHT22;18608;53.688;10.748;2022-12-18T01:10:50;-7.40;99.90
32095;DHT22;18608;53.688;10.748;2022-12-18T01:13:16;-6.70;99.90
32095;DHT22;18608;53.688;10.748;2022-12-18T01:15:49;-6.70;99.90
32095;DHT22;18608;53.688;10.748;2022-12-18T01:18:14;-6.70;99.90
32095;DHT22;18608;53.688;10.748;2022-12-18T01:20:40;-6.70;99.90
32095;DHT22;18608;53.688;10.748;2022-12-18T01:23:05;-6.70;99.90
32095;DHT22;18608;53.688;10.748;2022-12-18T01:25:32;-6.80;99.90
32095;DHT22;18608;53.688;10.748;2022-12-18T01:27:58;-6.80;99.90
32095;DHT22;18608;53.688;10.748;2022-12-18T01:30:24;-6.80;99.90
32095;DHT22;18608;53.688;10.748;2022-12-18T01:32:49;-6.80;99.90
32095;DHT22;18608;53.688;10.748;2022-12-18T01:35:15;-6.80;99.90
32095;DHT22;18608;53.688;10.748;2022-12-18T01:37:40;-6.90;99.90
32095;DHT22;18608;53.688;10.748;2022-12-18T01:40:07;-6.90;99.90
32095;DHT22;18608;53.688;10.748;2022-12-18T01:42:32;-6.90;99.90
32095;DHT22;18608;53.688;10.748;2022-12-18T01:48:01;-6.80;99.90
32095;DHT22;18608;53.688;10.748;2022-12-18T01:55:28;-6.90;99.90
32095;DHT22;18608;53.688;10.748;2022-12-18T01:57:56;-6.90;99.90
32095;DHT22;18608;53.688;10.748;2022-12-18T02:00:24;-6.80;99.90
32095;DHT22;18608;53.688;10.748;2022-12-18T02:02:50;-6.80;99.90
32095;DHT22;18608;53.688;10.748;2022-12-18T02:05:19;-6.80;99.90
32095;DHT22;18608;53.688;10.748;2022-12-18T02:08:26;-6.80;99.90
32095;DHT22;18608;53.688;10.748;2022-12-18T02:11:05;-6.70;99.90
32095;DHT22;18608;53.688;10.748;2022-12-18T02:13:46;-6.70;99.90
32095;DHT22;18608;53.688;10.748;2022-12-18T02:16:19;-6.80;99.90
32095;DHT22;18608;53.688;10.748;2022-12-18T02:18:50;-6.70;99.90
32095;DHT22;18608;53.688;10.748;2022-12-18T02:24:11;-6.70;99.90
32095;DHT22;18608;53.688;10.748;2022-12-18T02:26:53;-6.70;99.90
32095;DHT22;18608;53.688;10.748;2022-12-18T02:29:21;-6.70;99.90
32095;DHT22;18608;53.688;10.748;2022-12-18T02:31:58;-6.70;99.90
32095;DHT22;18608;53.688;10.748;2022-12-18T02:34:29;-6.70;99.90
32095;DHT22;18608;53.688;10.748;2022-12-18T02:36:57;-6.70;99.90
32095;DHT22;18608;53.688;10.748;2022-12-18T02:39:25;-6.70;99.90
32095;DHT22;18608;53.688;10.748;2022-12-18T02:41:52;-6.70;99.90
32095;DHT22;18608;53.688;10.748;2022-12-18T02:44:17;-6.70;99.90
32095;DHT22;18608;53.688;10.748;2022-12-18T02:46:46;-6.80;99.90
32095;DHT22;18608;53.688;10.748;2022-12-18T02:57:37;-6.80;99.90
32095;DHT22;18608;53.688;10.748;2022-12-18T03:00:13;-6.80;99.90
32095;DHT22;18608;53.688;10.748;2022-12-18T03:02:52;-6.80;99.90
32095;DHT22;18608;53.688;10.748;2022-12-18T03:05:24;-6.80;99.90
32095;DHT22;18608;53.688;10.748;2022-12-18T03:08:06;-6.90;99.90
32095;DHT22;18608;53.688;10.748;2022-12-18T03:10:37;-6.90;99.90
32095;DHT22;18608;53.688;10.748;2022-12-18T03:13:12;-6.90;99.90
32095;DHT22;18608;53.688;10.748;2022-12-18T03:15:47;-7.00;99.90
32095;DHT22;18608;53.688;10.748;2022-12-18T03:18:17;-7.00;99.90
32095;DHT22;18608;53.688;10.748;2022-12-18T03:20:44;-7.00;99.90
32095;DHT22;18608;53.688;10.748;2022-12-18T03:23:15;-7.00;99.90
32095;DHT22;18608;53.688;10.748;2022-12-18T03:25:43;-7.00;99.90
32095;DHT22;18608;53.688;10.748;2022-12-18T03:28:15;-7.10;99.90
32095;DHT22;18608;53.688;10.748;2022-12-18T03:30:44;-7.00;99.90
32095;DHT22;18608;53.688;10.748;2022-12-18T03:33:56;-7.00;99.90
32095;DHT22;18608;53.688;10.748;2022-12-18T03:36:01;-7.10;99.90
32095;DHT22;18608;53.688;10.748;2022-12-18T03:38:28;-7.20;99.90
32095;DHT22;18608;53.688;10.748;2022-12-18T03:43:51;-7.30;99.90
32095;DHT22;18608;53.688;10.748;2022-12-18T03:49:00;-7.40;99.90
32095;DHT22;18608;53.688;10.748;2022-12-18T03:52:06;-7.40;99.90
32095;DHT22;18608;53.688;10.748;2022-12-18T03:54:24;-7.40;99.90
32095;DHT22;18608;53.688;10.748;2022-12-18T03:56:57;-7.40;99.90
32095;DHT22;18608;53.688;10.748;2022-12-18T03:59:25;-7.40;99.90
32095;DHT22;18608;53.688;10.748;2022-12-18T04:01:52;-7.40;99.90
32095;DHT22;18608;53.688;10.748;2022-12-18T04:04:20;-7.40;99.90
32095;DHT22;18608;53.688;10.748;2022-12-18T04:06:48;-7.40;99.90
32095;DHT22;18608;53.688;10.748;2022-12-18T04:09:15;-7.40;99.90
32095;DHT22;18608;53.688;10.748;2022-12-18T04:11:41;-7.40;99.90
32095;DHT22;18608;53.688;10.748;2022-12-18T04:14:09;-7.40;99.90
32095;DHT22;18608;53.688;10.748;2022-12-18T04:16:35;-7.40;99.90
32095;DHT22;18608;53.688;10.748;2022-12-18T04:19:01;-7.40;99.90
32095;DHT22;18608;53.688;10.748;2022-12-18T04:21:26;-7.50;99.90
32095;DHT22;18608;53.688;10.748;2022-12-18T04:23:52;-7.50;99.90
32095;DHT22;18608;53.688;10.748;2022-12-18T04:26:17;-7.50;99.90
32095;DHT22;18608;53.688;10.748;2022-12-18T04:28:43;-7.50;99.90
32095;DHT22;18608;53.688;10.748;2022-12-18T04:31:08;-7.60;99.90
32095;DHT22;18608;53.688;10.748;2022-12-18T04:33:34;-7.60;99.90
32095;DHT22;18608;53.688;10.748;2022-12-18T04:36:00;-7.60;99.90
32095;DHT22;18608;53.688;10.748;2022-12-18T04:38:25;-7.60;99.90
32095;DHT22;18608;53.688;10.748;2022-12-18T04:40:51;-7.70;99.90
32095;DHT22;18608;53.688;10.748;2022-12-18T04:43:16;-7.70;99.90
32095;DHT22;18608;53.688;10.748;2022-12-18T04:45:42;-7.60;99.90
32095;DHT22;18608;53.688;10.748;2022-12-18T04:48:08;-7.60;99.90
32095;DHT22;18608;53.688;10.748;2022-12-18T04:50:34;-7.60;99.90
32095;DHT22;18608;53.688;10.748;2022-12-18T04:52:59;-7.60;99.90
32095;DHT22;18608;53.688;10.748;2022-12-18T04:55:25;-7.60;99.90
32095;DHT22;18608;53.688;10.748;2022-12-18T04:57:51;-7.60;99.90
32095;DHT22;18608;53.688;10.748;2022-12-18T05:00:17;-7.60;99.90
32095;DHT22;18608;53.688;10.748;2022-12-18T05:02:42;-7.60;99.90
32095;DHT22;18608;53.688;10.748;2022-12-18T05:05:08;-7.60;99.90
32095;DHT22;18608;53.688;10.748;2022-12-18T05:07:34;-7.60;99.90
32095;DHT22;18608;53.688;10.748;2022-12-18T05:10:00;-7.60;99.90
32095;DHT22;18608;53.688;10.748;2022-12-18T05:12:25;-7.70;99.90
32095;DHT22;18608;53.688;10.748;2022-12-18T05:14:51;-7.70;99.90
32095;DHT22;18608;53.688;10.748;2022-12-18T05:17:17;-7.70;99.90
32095;DHT22;18608;53.688;10.748;2022-12-18T05:19:43;-7.80;99.90
32095;DHT22;18608;53.688;10.748;2022-12-18T05:22:09;-7.70;99.90
32095;DHT22;18608;53.688;10.748;2022-12-18T05:24:35;-7.80;99.90
32095;DHT22;18608;53.688;10.748;2022-12-18T05:27:00;-7.80;99.90
32095;DHT22;18608;53.688;10.748;2022-12-18T05:29:26;-7.80;99.90
32095;DHT22;18608;53.688;10.748;2022-12-18T05:31:52;-7.80;99.90
32095;DHT22;18608;53.688;10.748;2022-12-18T05:34:17;-7.80;99.90
32095;DHT22;18608;53.688;10.748;2022-12-18T05:36:43;-7.80;99.90
32095;DHT22;18608;53.688;10.748;2022-12-18T05:39:08;-7.80;99.90
32095;DHT22;18608;53.688;10.748;2022-12-18T05:41:34;-7.70;99.90
32095;DHT22;18608;53.688;10.748;2022-12-18T05:44:00;-7.70;99.90
32095;DHT22;18608;53.688;10.748;2022-12-18T05:46:26;-7.80;99.90
32095;DHT22;18608;53.688;10.748;2022-12-18T05:48:52;-7.80;99.90
32095;DHT22;18608;53.688;10.748;2022-12-18T05:51:20;-7.80;99.90
32095;DHT22;18608;53.688;10.748;2022-12-18T05:53:46;-7.80;99.90
32095;DHT22;18608;53.688;10.748;2022-12-18T05:56:15;-7.80;99.90
32095;DHT22;18608;53.688;10.748;2022-12-18T05:58:41;-7.80;99.90
32095;DHT22;18608;53.688;10.748;2022-12-18T06:01:18;-7.80;99.90
32095;DHT22;18608;53.688;10.748;2022-12-18T06:03:44;-7.80;99.90
32095;DHT22;18608;53.688;10.748;2022-12-18T06:08:40;-8.00;99.90
32095;DHT22;18608;53.688;10.748;2022-12-18T06:11:06;-8.00;99.90
32095;DHT22;18608;53.688;10.748;2022-12-18T06:13:31;-8.00;99.90
32095;DHT22;18608;53.688;10.748;2022-12-18T06:15:57;-8.10;99.90
32095;DHT22;18608;53.688;10.748;2022-12-18T06:18:22;-8.10;99.90
32095;DHT22;18608;53.688;10.748;2022-12-18T06:20:57;-8.10;99.90
32095;DHT22;18608;53.688;10.748;2022-12-18T06:23:23;-8.20;99.90
32095;DHT22;18608;53.688;10.748;2022-12-18T06:25:49;-8.20;99.90
32095;DHT22;18608;53.688;10.748;2022-12-18T06:28:15;-8.30;99.90
32095;DHT22;18608;53.688;10.748;2022-12-18T06:30:43;-8.30;99.90
32095;DHT22;18608;53.688;10.748;2022-12-18T06:33:09;-8.20;99.90
32095;DHT22;18608;53.688;10.748;2022-12-18T06:35:35;-8.30;99.90
32095;DHT22;18608;53.688;10.748;2022-12-18T06:38:02;-8.30;99.90
32095;DHT22;18608;53.688;10.748;2022-12-18T06:40:28;-8.30;99.90
32095;DHT22;18608;53.688;10.748;2022-12-18T06:42:54;-8.30;99.90
32095;DHT22;18608;53.688;10.748;2022-12-18T06:45:20;-8.30;99.90
32095;DHT22;18608;53.688;10.748;2022-12-18T06:47:45;-8.40;99.90
32095;DHT22;18608;53.688;10.748;2022-12-18T06:50:12;-8.40;99.90
32095;DHT22;18608;53.688;10.748;2022-12-18T06:52:38;-8.30;99.90
32095;DHT22;18608;53.688;10.748;2022-12-18T06:55:06;-8.30;99.90
32095;DHT22;18608;53.688;10.748;2022-12-18T06:57:33;-8.40;99.90
32095;DHT22;18608;53.688;10.748;2022-12-18T06:59:59;-8.40;99.90
32095;DHT22;18608;53.688;10.748;2022-12-18T07:02:25;-8.40;99.90
32095;DHT22;18608;53.688;10.748;2022-12-18T07:04:51;-8.40;99.90
32095;DHT22;18608;53.688;10.748;2022-12-18T07:07:16;-8.50;99.90
32095;DHT22;18608;53.688;10.748;2022-12-18T07:09:42;-8.40;99.90
32095;DHT22;18608;53.688;10.748;2022-12-18T07:12:07;-8.40;99.90
32095;DHT22;18608;53.688;10.748;2022-12-18T07:14:34;-8.40;99.90
32095;DHT22;18608;53.688;10.748;2022-12-18T07:16:59;-8.40;99.90
32095;DHT22;18608;53.688;10.748;2022-12-18T07:19:25;-8.30;99.90
32095;DHT22;18608;53.688;10.748;2022-12-18T07:21:51;-8.30;99.90
32095;DHT22;18608;53.688;10.748;2022-12-18T07:24:17;-8.30;99.90
32095;DHT22;18608;53.688;10.748;2022-12-18T07:26:42;-8.30;99.90
32095;DHT22;18608;53.688;10.748;2022-12-18T07:29:10;-8.30;99.90
32095;DHT22;18608;53.688;10.748;2022-12-18T07:31:36;-8.30;99.90
32095;DHT22;18608;53.688;10.748;2022-12-18T07:34:01;-8.30;99.90
32095;DHT22;18608;53.688;10.748;2022-12-18T07:36:27;-8.40;99.90
32095;DHT22;18608;53.688;10.748;2022-12-18T07:38:52;-8.40;99.90
32095;DHT22;18608;53.688;10.748;2022-12-18T07:41:18;-8.40;99.90
32095;DHT22;18608;53.688;10.748;2022-12-18T07:43:44;-8.30;99.90
32095;DHT22;18608;53.688;10.748;2022-12-18T07:46:10;-8.40;99.90
32095;DHT22;18608;53.688;10.748;2022-12-18T07:48:42;-8.40;99.90
32095;DHT22;18608;53.688;10.748;2022-12-18T07:51:08;-8.40;99.90
32095;DHT22;18608;53.688;10.748;2022-12-18T07:53:35;-6.50;99.90
32095;DHT22;18608;53.688;10.748;2022-12-18T07:56:03;-8.40;99.90
32095;DHT22;18608;53.688;10.748;2022-12-18T07:58:30;-8.40;99.90
32095;DHT22;18608;53.688;10.748;2022-12-18T08:01:22;-8.50;99.90
32095;DHT22;18608;53.688;10.748;2022-12-18T08:03:48;-8.50;99.90
32095;DHT22;18608;53.688;10.748;2022-12-18T08:06:13;-8.60;99.90
32095;DHT22;18608;53.688;10.748;2022-12-18T08:08:39;-8.50;99.90
32095;DHT22;18608;53.688;10.748;2022-12-18T08:11:06;-8.50;99.90
32095;DHT22;18608;53.688;10.748;2022-12-18T08:13:32;-8.50;99.90
32095;DHT22;18608;53.688;10.748;2022-12-18T08:16:01;-8.40;99.90
32095;DHT22;18608;53.688;10.748;2022-12-18T08:18:28;-8.50;99.90
32095;DHT22;18608;53.688;10.748;2022-12-18T08:20:54;-8.40;99.90
32095;DHT22;18608;53.688;10.748;2022-12-18T08:23:20;-8.40;99.90
32095;DHT22;18608;53.688;10.748;2022-12-18T08:25:46;-8.40;99.90
32095;DHT22;18608;53.688;10.748;2022-12-18T08:28:11;-8.40;99.90
32095;DHT22;18608;53.688;10.748;2022-12-18T08:30:37;-8.30;99.90
32095;DHT22;18608;53.688;10.748;2022-12-18T08:33:03;-8.30;99.90
32095;DHT22;18608;53.688;10.748;2022-12-18T08:35:28;-8.30;99.90
32095;DHT22;18608;53.688;10.748;2022-12-18T08:37:54;-8.20;99.90
32095;DHT22;18608;53.688;10.748;2022-12-18T08:40:19;-8.20;99.90
32095;DHT22;18608;53.688;10.748;2022-12-18T08:42:45;-8.20;99.90
32095;DHT22;18608;53.688;10.748;2022-12-18T08:45:29;-8.10;99.90
32095;DHT22;18608;53.688;10.748;2022-12-18T08:47:55;-8.00;99.90
32095;DHT22;18608;53.688;10.748;2022-12-18T08:50:20;-8.00;99.90
32095;DHT22;18608;53.688;10.748;2022-12-18T08:52:46;-8.00;99.90
32095;DHT22;18608;53.688;10.748;2022-12-18T08:55:11;-8.00;99.90
32095;DHT22;18608;53.688;10.748;2022-12-18T08:57:37;-9.20;99.90
32095;DHT22;18608;53.688;10.748;2022-12-18T09:00:04;-7.80;99.90
32095;DHT22;18608;53.688;10.748;2022-12-18T09:02:30;-7.80;99.90
32095;DHT22;18608;53.688;10.748;2022-12-18T09:04:55;-7.80;99.90
32095;DHT22;18608;53.688;10.748;2022-12-18T09:07:21;-7.70;99.90
32095;DHT22;18608;53.688;10.748;2022-12-18T09:09:46;-7.60;99.90
32095;DHT22;18608;53.688;10.748;2022-12-18T09:12:12;-7.50;99.90
32095;DHT22;18608;53.688;10.748;2022-12-18T09:14:37;-7.50;99.90
32095;DHT22;18608;53.688;10.748;2022-12-18T09:17:03;-7.30;99.90
32095;DHT22;18608;53.688;10.748;2022-12-18T09:19:29;-7.20;99.90
32095;DHT22;18608;53.688;10.748;2022-12-18T09:21:54;-7.10;99.90
32095;DHT22;18608;53.688;10.748;2022-12-18T09:24:20;-7.00;99.90
32095;DHT22;18608;53.688;10.748;2022-12-18T09:26:53;-7.00;99.90
32095;DHT22;18608;53.688;10.748;2022-12-18T09:29:20;-6.80;99.90
32095;DHT22;18608;53.688;10.748;2022-12-18T09:31:46;-6.70;99.90
32095;DHT22;18608;53.688;10.748;2022-12-18T09:34:12;-6.60;99.90
32095;DHT22;18608;53.688;10.748;2022-12-18T09:36:37;-6.70;99.90
32095;DHT22;18608;53.688;10.748;2022-12-18T09:39:03;-6.60;99.90
32095;DHT22;18608;53.688;10.748;2022-12-18T09:41:54;-6.50;99.90
32095;DHT22;18608;53.688;10.748;2022-12-18T09:47:15;-6.10;99.90
32095;DHT22;18608;53.688;10.748;2022-12-18T09:49:47;-4.40;99.90
32095;DHT22;18608;53.688;10.748;2022-12-18T09:52:35;-5.90;99.90
32095;DHT22;18608;53.688;10.748;2022-12-18T10:00:34;-5.40;99.90
32095;DHT22;18608;53.688;10.748;2022-12-18T10:03:08;-5.40;99.90
32095;DHT22;18608;53.688;10.748;2022-12-18T10:08:27;-5.10;99.90
32095;DHT22;18608;53.688;10.748;2022-12-18T10:10:57;-5.10;99.90
32095;DHT22;18608;53.688;10.748;2022-12-18T10:13:50;-5.30;99.90
32095;DHT22;18608;53.688;10.748;2022-12-18T10:19:18;-5.30;99.90
32095;DHT22;18608;53.688;10.748;2022-12-18T10:21:48;-5.10;99.90
32095;DHT22;18608;53.688;10.748;2022-12-18T10:27:04;-5.40;99.90
32095;DHT22;18608;53.688;10.748;2022-12-18T10:29:34;-5.60;99.90
32095;DHT22;18608;53.688;10.748;2022-12-18T10:31:59;-5.60;99.90
32095;DHT22;18608;53.688;10.748;2022-12-18T10:34:25;-5.40;99.90
32095;DHT22;18608;53.688;10.748;2022-12-18T10:36:51;-5.10;99.90
32095;DHT22;18608;53.688;10.748;2022-12-18T10:39:22;-5.10;99.90
32095;DHT22;18608;53.688;10.748;2022-12-18T10:41:48;-5.10;99.90
32095;DHT22;18608;53.688;10.748;2022-12-18T10:46:44;-5.40;99.90
32095;DHT22;18608;53.688;10.748;2022-12-18T10:49:29;-5.40;99.90
32095;DHT22;18608;53.688;10.748;2022-12-18T10:52:14;-5.30;99.90
32095;DHT22;18608;53.688;10.748;2022-12-18T10:54:47;-6.60;99.90
32095;DHT22;18608;53.688;10.748;2022-12-18T10:57:34;-5.00;99.90
32095;DHT22;18608;53.688;10.748;2022-12-18T11:00:33;-4.80;99.90
32095;DHT22;18608;53.688;10.748;2022-12-18T11:03:01;-4.80;99.90
32095;DHT22;18608;53.688;10.748;2022-12-18T11:05:33;-5.00;99.90
32095;DHT22;18608;53.688;10.748;2022-12-18T11:08:00;-4.90;99.90
32095;DHT22;18608;53.688;10.748;2022-12-18T11:10:46;-4.80;99.90
32095;DHT22;18608;53.688;10.748;2022-12-18T11:13:18;-4.70;99.90
32095;DHT22;18608;53.688;10.748;2022-12-18T11:15:46;-4.70;99.90
32095;DHT22;18608;53.688;10.748;2022-12-18T11:18:22;-4.70;99.90
32095;DHT22;18608;53.688;10.748;2022-12-18T11:23:23;-4.80;99.90
32095;DHT22;18608;53.688;10.748;2022-12-18T11:26:01;-4.80;99.90
32095;DHT22;18608;53.688;10.748;2022-12-18T11:31:28;-4.80;99.90
32095;DHT22;18608;53.688;10.748;2022-12-18T11:36:32;-4.60;99.90
32095;DHT22;18608;53.688;10.748;2022-12-18T11:39:03;-4.60;99.90
32095;DHT22;18608;53.688;10.748;2022-12-18T11:47:44;-5.00;99.90
32095;DHT22;18608;53.688;10.748;2022-12-18T11:50:16;-4.90;99.90
32095;DHT22;18608;53.688;10.748;2022-12-18T11:52:42;-4.90;99.90
32095;DHT22;18608;53.688;10.748;2022-12-18T11:55:19;-4.80;99.90
32095;DHT22;18608;53.688;10.748;2022-12-18T12:00:15;-4.60;99.90
32095;DHT22;18608;53.688;10.748;2022-12-18T12:05:48;-4.70;99.90
32095;DHT22;18608;53.688;10.748;2022-12-18T12:16:17;-4.40;99.90
32095;DHT22;18608;53.688;10.748;2022-12-18T12:21:40;-4.10;99.90
32095;DHT22;18608;53.688;10.748;2022-12-18T12:32:12;-4.20;99.90
32095;DHT22;18608;53.688;10.748;2022-12-18T12:35:26;-4.30;99.90
32095;DHT22;18608;53.688;10.748;2022-12-18T12:38:13;-4.40;99.90
32095;DHT22;18608;53.688;10.748;2022-12-18T12:40:56;-4.30;99.90
32095;DHT22;18608;53.688;10.748;2022-12-18T12:43:43;-4.10;99.90
32095;DHT22;18608;53.688;10.748;2022-12-18T12:46:11;-4.20;99.90
32095;DHT22;18608;53.688;10.748;2022-12-18T12:51:32;-4.40;99.90
32095;DHT22;18608;53.688;10.748;2022-12-18T12:54:00;-4.40;99.90
32095;DHT22;18608;53.688;10.748;2022-12-18T12:56:41;-4.40;99.90
32095;DHT22;18608;53.688;10.748;2022-12-18T12:59:22;-4.50;99.90
32095;DHT22;18608;53.688;10.748;2022-12-18T13:02:05;-4.70;99.90
32095;DHT22;18608;53.688;10.748;2022-12-18T13:07:39;-4.70;99.90
32095;DHT22;18608;53.688;10.748;2022-12-18T13:20:38;-4.70;99.90
32095;DHT22;18608;53.688;10.748;2022-12-18T13:25:58;-4.60;99.90
32095;DHT22;18608;53.688;10.748;2022-12-18T13:31:09;-4.60;99.90
32095;DHT22;18608;53.688;10.748;2022-12-18T13:38:44;-4.60;99.90
32095;DHT22;18608;53.688;10.748;2022-12-18T13:41:27;-4.70;99.90
32095;DHT22;18608;53.688;10.748;2022-12-18T13:43:55;-4.70;99.90
32095;DHT22;18608;53.688;10.748;2022-12-18T13:51:24;-4.70;99.90
32095;DHT22;18608;53.688;10.748;2022-12-18T13:56:48;-4.70;99.90
32095;DHT22;18608;53.688;10.748;2022-12-18T13:59:20;-4.70;99.90
32095;DHT22;18608;53.688;10.748;2022-12-18T14:01:50;-4.80;99.90
32095;DHT22;18608;53.688;10.748;2022-12-18T14:04:32;-4.80;99.90
32095;DHT22;18608;53.688;10.748;2022-12-18T14:07:02;-4.80;99.90
32095;DHT22;18608;53.688;10.748;2022-12-18T14:09:34;-4.90;99.90
32095;DHT22;18608;53.688;10.748;2022-12-18T14:12:00;-4.90;99.90
32095;DHT22;18608;53.688;10.748;2022-12-18T14:14:48;-4.90;99.90
32095;DHT22;18608;53.688;10.748;2022-12-18T14:17:15;-4.90;99.90
32095;DHT22;18608;53.688;10.748;2022-12-18T14:19:42;-5.00;99.90
32095;DHT22;18608;53.688;10.748;2022-12-18T14:22:25;-5.10;99.90
32095;DHT22;18608;53.688;10.748;2022-12-18T14:28:08;-5.20;99.90
32095;DHT22;18608;53.688;10.748;2022-12-18T14:30:31;-5.20;99.90
32095;DHT22;18608;53.688;10.748;2022-12-18T14:33:05;-5.20;99.90
32095;DHT22;18608;53.688;10.748;2022-12-18T14:35:33;-5.20;99.90
32095;DHT22;18608;53.688;10.748;2022-12-18T14:38:32;-5.20;99.90
32095;DHT22;18608;53.688;10.748;2022-12-18T14:43:27;-5.30;99.90
32095;DHT22;18608;53.688;10.748;2022-12-18T14:45:53;-5.40;99.90
32095;DHT22;18608;53.688;10.748;2022-12-18T14:48:41;-5.40;99.90
32095;DHT22;18608;53.688;10.748;2022-12-18T14:51:17;-5.30;99.90
32095;DHT22;18608;53.688;10.748;2022-12-18T14:53:48;-5.40;99.90
32095;DHT22;18608;53.688;10.748;2022-12-18T14:56:23;-5.40;99.90
32095;DHT22;18608;53.688;10.748;2022-12-18T14:58:53;-5.50;99.90
32095;DHT22;18608;53.688;10.748;2022-12-18T15:01:21;-5.50;99.90
32095;DHT22;18608;53.688;10.748;2022-12-18T15:03:48;-5.40;99.90
32095;DHT22;18608;53.688;10.748;2022-12-18T15:06:24;-5.50;99.90
32095;DHT22;18608;53.688;10.748;2022-12-18T15:08:50;-5.50;99.90
32095;DHT22;18608;53.688;10.748;2022-12-18T15:11:26;-5.50;99.90
32095;DHT22;18608;53.688;10.748;2022-12-18T15:13:52;-5.50;99.90
32095;DHT22;18608;53.688;10.748;2022-12-18T15:16:17;-5.50;99.90
32095;DHT22;18608;53.688;10.748;2022-12-18T15:18:43;-5.50;99.90
32095;DHT22;18608;53.688;10.748;2022-12-18T15:21:16;-5.50;99.90
32095;DHT22;18608;53.688;10.748;2022-12-18T15:23:52;-5.50;99.90
32095;DHT22;18608;53.688;10.748;2022-12-18T15:26:20;-5.50;99.90
32095;DHT22;18608;53.688;10.748;2022-12-18T15:28:51;-5.50;99.90
32095;DHT22;18608;53.688;10.748;2022-12-18T15:36:19;-5.50;99.90
32095;DHT22;18608;53.688;10.748;2022-12-18T15:38:54;-5.50;99.90
32095;DHT22;18608;53.688;10.748;2022-12-18T15:41:21;-5.60;99.90
32095;DHT22;18608;53.688;10.748;2022-12-18T15:43:49;-5.60;99.90
32095;DHT22;18608;53.688;10.748;2022-12-18T15:46:20;-5.50;99.90
32095;DHT22;18608;53.688;10.748;2022-12-18T15:48:51;-5.50;99.90
32095;DHT22;18608;53.688;10.748;2022-12-18T15:51:29;-5.50;99.90
32095;DHT22;18608;53.688;10.748;2022-12-18T15:53:59;-5.50;99.90
32095;DHT22;18608;53.688;10.748;2022-12-18T15:56:25;-5.50;99.90
32095;DHT22;18608;53.688;10.748;2022-12-18T15:59:20;-5.40;99.90
32095;DHT22;18608;53.688;10.748;2022-12-18T16:01:51;-5.30;99.90
32095;DHT22;18608;53.688;10.748;2022-12-18T16:04:19;-5.30;99.90
32095;DHT22;18608;53.688;10.748;2022-12-18T16:06:46;-5.30;99.90
32095;DHT22;18608;53.688;10.748;2022-12-18T16:09:12;-5.30;99.90
32095;DHT22;18608;53.688;10.748;2022-12-18T16:11:39;-5.20;99.90
32095;DHT22;18608;53.688;10.748;2022-12-18T16:14:23;-5.20;99.90
32095;DHT22;18608;53.688;10.748;2022-12-18T16:16:57;-5.10;99.90
32095;DHT22;18608;53.688;10.748;2022-12-18T16:19:23;-5.10;99.90
32095;DHT22;18608;53.688;10.748;2022-12-18T16:21:51;-5.00;99.90
32095;DHT22;18608;53.688;10.748;2022-12-18T16:24:19;-5.00;99.90
32095;DHT22;18608;53.688;10.748;2022-12-18T16:26:47;-4.90;99.90
32095;DHT22;18608;53.688;10.748;2022-12-18T16:29:13;-4.90;99.90
32095;DHT22;18608;53.688;10.748;2022-12-18T16:31:39;-4.90;99.90
32095;DHT22;18608;53.688;10.748;2022-12-18T16:34:21;-4.90;99.90
32095;DHT22;18608;53.688;10.748;2022-12-18T16:36:48;-4.90;99.90
32095;DHT22;18608;53.688;10.748;2022-12-18T16:39:14;-4.80;99.90
32095;DHT22;18608;53.688;10.748;2022-12-18T16:41:40;-4.70;99.90
32095;DHT22;18608;53.688;10.748;2022-12-18T16:44:06;-4.70;99.90
32095;DHT22;18608;53.688;10.748;2022-12-18T16:46:31;-4.70;99.90
32095;DHT22;18608;53.688;10.748;2022-12-18T16:48:58;-4.70;99.90
32095;DHT22;18608;53.688;10.748;2022-12-18T16:51:25;-4.70;99.90
32095;DHT22;18608;53.688;10.748;2022-12-18T16:53:51;-4.60;99.90
32095;DHT22;18608;53.688;10.748;2022-12-18T16:56:17;-4.60;99.90
32095;DHT22;18608;53.688;10.748;2022-12-18T16:58:43;-4.60;99.90
32095;DHT22;18608;53.688;10.748;2022-12-18T17:01:10;-4.60;99.90
32095;DHT22;18608;53.688;10.748;2022-12-18T17:03:36;-4.60;99.90
32095;DHT22;18608;53.688;10.748;2022-12-18T17:06:03;-4.60;99.90
32095;DHT22;18608;53.688;10.748;2022-12-18T17:08:29;-4.50;99.90
32095;DHT22;18608;53.688;10.748;2022-12-18T17:10:54;-4.50;99.90
32095;DHT22;18608;53.688;10.748;2022-12-18T17:13:20;-4.50;99.90
32095;DHT22;18608;53.688;10.748;2022-12-18T17:15:45;-4.40;99.90
32095;DHT22;18608;53.688;10.748;2022-12-18T17:18:11;-4.50;99.90
32095;DHT22;18608;53.688;10.748;2022-12-18T17:20:37;-4.50;99.90
32095;DHT22;18608;53.688;10.748;2022-12-18T17:23:02;-4.50;99.90
32095;DHT22;18608;53.688;10.748;2022-12-18T17:25:28;-4.40;99.90
32095;DHT22;18608;53.688;10.748;2022-12-18T17:27:53;-4.40;99.90
32095;DHT22;18608;53.688;10.748;2022-12-18T17:30:19;-4.40;99.90
32095;DHT22;18608;53.688;10.748;2022-12-18T17:32:45;-4.40;99.90
32095;DHT22;18608;53.688;10.748;2022-12-18T17:35:10;-4.40;99.90
32095;DHT22;18608;53.688;10.748;2022-12-18T17:37:36;-4.40;99.90
32095;DHT22;18608;53.688;10.748;2022-12-18T17:40:02;-4.40;99.90